Observation data for Hereford on 11/07/2019      Previous  Date       Current Mesonet Observations  Soil Data  Daily Summary Page  Observations in Plain Language
KHES 070600Z 02018G25KT 02/00 A3025 RMK A01 T00200003  RH  090%=      5-min Rain = 0
KHES 070605Z 02020KT 02/00 A3025 RMK A01 T00180001  RH  090%=      5-min Rain = 0
KHES 070610Z 02018G24KT 02/00 A3026 RMK A01 T00170001  RH  090%=      5-min Rain = 0
KHES 070615Z 02021G28KT 01/M00 A3027 RMK A01 T00141001  RH  091%=      5-min Rain = 0
KHES 070620Z 02019G25KT 01/M00 A3028 RMK A01 T00131002  RH  091%=      5-min Rain = 0
KHES 070625Z 02021G28KT 01/M00 A3028 RMK A01 T00121003  RH  091%=      5-min Rain = 0
KHES 070630Z 02020G26KT 01/M00 A3027 RMK A01 T00111004  RH  091%=      5-min Rain = 0
KHES 070635Z 02020G26KT 01/M01 A3028 RMK A01 T00101005  RH  091%=      5-min Rain = 0
KHES 070640Z 02023G28KT 01/M01 A3028 RMK A01 T00081007  RH  091%=      5-min Rain = 0
KHES 070645Z 02021G30KT 01/M01 A3028 RMK A01 T00061008  RH  091%=      5-min Rain = 0
KHES 070650Z 02020G25KT 01/M01 A3029 RMK A01 T00061008  RH  092%=      5-min Rain = 0
KHES 070655Z 02020KT 01/M01 A3029 RMK A01 T00051008  RH  092%=      5-min Rain = 0
KHES 070700Z 01020G25KT 00/M01 A303 RMK A01 T00031009  RH  092%=      5-min Rain = 0
KHES 070705Z 01019G26KT 00/M01 A3031 RMK A01 T00021009  RH  093%=      5-min Rain = 0
KHES 070710Z 01020G26KT 00/M01 A3032 RMK A01 T00011009  RH  094%=      5-min Rain = 0
KHES 070715Z 02023G30KT 00/01 A3031 RMK A01 T000000-9  RH  094%=      5-min Rain = 0
KHES 070720Z 02024G29KT M00/M01 A3031 RMK A01 T10021010  RH  095%=      5-min Rain = 0
KHES 070725Z 02020G27KT M00/M01 A3031 RMK A01 T10031010  RH  096%=      5-min Rain = 0
KHES 070730Z 02018G25KT M00/M01 A3032 RMK A01 T10031008  RH  097%=      5-min Rain = 0
KHES 070735Z 01017KT M00/M01 A3033 RMK A01 T10021008  RH  097%=      5-min Rain = 0
KHES 070740Z 01019KT M00/M01 A3034 RMK A01 T10031009  RH  097%=      5-min Rain = 0
KHES 070745Z 01022G27KT M01/M01 A3033 RMK A01 T10051011  RH  097%=      5-min Rain = 0
KHES 070750Z 01021G31KT M01/M01 A3034 RMK A01 T10061012  RH  097%=      5-min Rain = 0
KHES 070755Z 01022G28KT M01/M01 A3034 RMK A01 T10081013  RH  097%=      5-min Rain = 0
KHES 070800Z 01019G25KT M01/M01 A3034 RMK A01 T10081013  RH  097%=      5-min Rain = 0
KHES 070805Z 02022G29KT M01/M01 A3034 RMK A01 T10091014  RH  097%=      5-min Rain = 0
KHES 070810Z 02023G30KT M01/M02 A3034 RMK A01 T10101015  RH  098%=      5-min Rain = 0
KHES 070815Z 02023G30KT M01/M02 A3034 RMK A01 T10101015  RH  098%=      5-min Rain = 0
KHES 070820Z 01020G25KT M01/M02 A3034 RMK A01 T10101015  RH  097%=      5-min Rain = 0
KHES 070825Z 01019G25KT M01/M01 A3035 RMK A01 T10091014  RH  097%=      5-min Rain = 0
KHES 070830Z 02020G28KT M01/M01 A3034 RMK A01 T10091014  RH  097%=      5-min Rain = 0
KHES 070835Z 01023G28KT M01/M02 A3034 RMK A01 T10101015  RH  097%=      5-min Rain = 0
KHES 070840Z 01023G29KT M01/M02 A3034 RMK A01 T10111016  RH  097%=      5-min Rain = 0
KHES 070845Z 01024G31KT M01/M02 A3035 RMK A01 T10131018  RH  097%=      5-min Rain = 0
KHES 070850Z 01024G31KT M01/M02 A3034 RMK A01 T10141019  RH  097%=      5-min Rain = 0
KHES 070855Z 02023G30KT M01/M02 A3035 RMK A01 T10141019  RH  097%=      5-min Rain = 0
KHES 070900Z 02022G27KT M01/M02 A3035 RMK A01 T10141020  RH  096%=      5-min Rain = 0
KHES 070905Z 02021G27KT M01/M02 A3035 RMK A01 T10141020  RH  096%=      5-min Rain = 0
KHES 070910Z 02021G27KT M01/M02 A3034 RMK A01 T10131019  RH  097%=      5-min Rain = 0
KHES 070915Z 01023G30KT M01/M02 A3034 RMK A01 T10141019  RH  097%=      5-min Rain = 0
KHES 070920Z 02019G27KT M01/M02 A3033 RMK A01 T10141020  RH  096%=      5-min Rain = 0
KHES 070925Z 02021G26KT M02/M02 A3033 RMK A01 T10151021  RH  096%=      5-min Rain = 0
KHES 070930Z 01020G25KT M02/M02 A3036 RMK A01 T10151022  RH  096%=      5-min Rain = 0
KHES 070935Z 01019G24KT M02/M02 A3036 RMK A01 T10161022  RH  096%=      5-min Rain = 0
KHES 070940Z 01021G28KT M02/M02 A3035 RMK A01 T10161022  RH  096%=      5-min Rain = 0
KHES 070945Z 01022G30KT M02/M02 A3034 RMK A01 T10171023  RH  096%=      5-min Rain = 0
KHES 070950Z 01022G28KT M02/M02 A3035 RMK A01 T10171024  RH  096%=      5-min Rain = 0
KHES 070955Z 01019G28KT M02/M02 A3036 RMK A01 T10171023  RH  096%=      5-min Rain = 0
KHES 071000Z 01017G25KT M02/M02 A3036 RMK A01 T10171024  RH  096%=      5-min Rain = 0
KHES 071005Z 01020G25KT M02/M02 A3036 RMK A01 T10171023  RH  096%=      5-min Rain = 0
KHES 071010Z 01017G24KT M02/M02 A3036 RMK A01 T10171023  RH  096%=      5-min Rain = 0
KHES 071015Z 01020G26KT M02/M02 A3035 RMK A01 T10171024  RH  096%=      5-min Rain = 0
KHES 071020Z 01018G27KT M02/M02 A3035 RMK A01 T10171024  RH  096%=      5-min Rain = 0
KHES 071025Z 01021G27KT M02/M03 A3036 RMK A01 T10181025  RH  096%=      5-min Rain = 0
KHES 071030Z 01022G29KT M02/M03 A3036 RMK A01 T10191026  RH  095%=      5-min Rain = 0
KHES 071035Z 01021G26KT M02/M03 A3037 RMK A01 T10191026  RH  095%=      5-min Rain = 0
KHES 071040Z 01022G28KT M02/M03 A3036 RMK A01 T10201027  RH  095%=      5-min Rain = 0
KHES 071045Z 01021G28KT M02/M03 A3036 RMK A01 T10201028  RH  095%=      5-min Rain = 0
KHES 071050Z 01021G28KT M02/M03 A3036 RMK A01 T10201028  RH  095%=      5-min Rain = 0
KHES 071055Z 02022G30KT M02/M03 A3036 RMK A01 T10201028  RH  095%=      5-min Rain = 0
KHES 071100Z 01021G29KT M02/M03 A3036 RMK A01 T10201028  RH  094%=      5-min Rain = 0
KHES 071105Z 01023G30KT M02/M03 A3036 RMK A01 T10221030  RH  095%=      5-min Rain = 0
KHES 071110Z 01022G27KT M02/M03 A3036 RMK A01 T10231030  RH  096%=      5-min Rain = 0
KHES 071115Z 01023G29KT M02/M03 A3036 RMK A01 T10231029  RH  096%=      5-min Rain = 0
KHES 071120Z 01022G29KT M02/M03 A3037 RMK A01 T10231029  RH  096%=      5-min Rain = 0
KHES 071125Z 01023KT M02/M03 A3038 RMK A01 T10231030  RH  096%=      5-min Rain = 0
KHES 071130Z 01023G29KT M02/M03 A3038 RMK A01 T10231030  RH  096%=      5-min Rain = 0
KHES 071135Z 01024G29KT M02/M03 A3038 RMK A01 T10231031  RH  095%=      5-min Rain = 0
KHES 071140Z 01022G28KT M02/M03 A3038 RMK A01 T10231032  RH  094%=      5-min Rain = 0
KHES 071145Z 01021G26KT M02/M03 A3039 RMK A01 T10221033  RH  093%=      5-min Rain = 0
KHES 071150Z 02021G28KT M02/M03 A3039 RMK A01 T10221034  RH  092%=      5-min Rain = 0
KHES 071155Z 02019G24KT M02/M03 A3039 RMK A01 T10221034  RH  092%=      5-min Rain = 0
KHES 071200Z 01020G26KT M02/M03 A3039 RMK A01 T10221033  RH  093%=      5-min Rain = 0
KHES 071205Z 00022G27KT M02/M03 A3039 RMK A01 T10231033  RH  094%=      5-min Rain = 0
KHES 071210Z 01020G27KT M02/M03 A3039 RMK A01 T10241033  RH  094%=      5-min Rain = 0
KHES 071215Z 01020G27KT M02/M03 A3039 RMK A01 T10241033  RH  094%=      5-min Rain = 0
KHES 071220Z 01020G25KT M02/M03 A3039 RMK A01 T10241032  RH  095%=      5-min Rain = 0
KHES 071225Z 02018G25KT M02/M03 A304 RMK A01 T10231032  RH  094%=      5-min Rain = 0
KHES 071230Z 01021G27KT M02/M03 A304 RMK A01 T10231033  RH  094%=      5-min Rain = 0
KHES 071235Z 02019G24KT M02/M03 A304 RMK A01 T10241033  RH  094%=      5-min Rain = 0
KHES 071240Z 01016KT M02/M03 A304 RMK A01 T10241033  RH  094%=      5-min Rain = 0
KHES 071245Z 02018KT M02/M03 A304 RMK A01 T10241033  RH  094%=      5-min Rain = 0
KHES 071250Z 02020G25KT M02/M03 A304 RMK A01 T10241034  RH  094%=      5-min Rain = 0
KHES 071255Z 01016G21KT M02/M03 A3041 RMK A01 T10231033  RH  094%=      5-min Rain = 0
KHES 071300Z 02017KT M02/M03 A304 RMK A01 T10231032  RH  094%=      5-min Rain = 0
KHES 071305Z 02020KT M02/M03 A304 RMK A01 T10231033  RH  094%=      5-min Rain = 0
KHES 071310Z 02019G24KT M02/M03 A304 RMK A01 T10241033  RH  094%=      5-min Rain = 0
KHES 071315Z 01018G25KT M02/M03 A3041 RMK A01 T10241033  RH  094%=      5-min Rain = 0
KHES 071320Z 02022G28KT M03/M04 A3041 RMK A01 T10261035  RH  094%=      5-min Rain = 0
KHES 071325Z 02019G26KT M03/M04 A3041 RMK A01 T10271037  RH  093%=      5-min Rain = 0
KHES 071330Z 02017G22KT M03/M04 A3042 RMK A01 T10261036  RH  094%=      5-min Rain = 0
KHES 071335Z 02019G26KT M03/M04 A3042 RMK A01 T10261035  RH  094%=      5-min Rain = 0
KHES 071340Z 02017G23KT M03/M04 A3042 RMK A01 T10261035  RH  094%=      5-min Rain = 0
KHES 071345Z 01017G24KT M03/M03 A3042 RMK A01 T10251034  RH  094%=      5-min Rain = 0
KHES 071350Z 01015KT M02/M03 A3043 RMK A01 T10241033  RH  094%=      5-min Rain = 0
KHES 071355Z 01016G22KT M02/M03 A3043 RMK A01 T10241033  RH  094%=      5-min Rain = 0
KHES 071400Z 01016KT M02/M03 A3043 RMK A01 T10241033  RH  094%=      5-min Rain = 0
KHES 071405Z 01016KT M02/M03 A3043 RMK A01 T10241032  RH  094%=      5-min Rain = 0
KHES 071410Z 02019KT M02/M03 A3043 RMK A01 T10241033  RH  094%=      5-min Rain = 0
KHES 071415Z 01018G24KT M02/M03 A3043 RMK A01 T10241034  RH  094%=      5-min Rain = 0
KHES 071420Z 01017KT M02/M03 A3043 RMK A01 T10241033  RH  094%=      5-min Rain = 0
KHES 071425Z 01018G23KT M03/M03 A3043 RMK A01 T10251034  RH  094%=      5-min Rain = 0
KHES 071430Z 01018G24KT M03/M04 A3044 RMK A01 T10251035  RH  094%=      5-min Rain = 0
KHES 071435Z 01019KT M03/M04 A3044 RMK A01 T10251035  RH  094%=      5-min Rain = 0
KHES 071440Z 01018KT M03/M04 A3045 RMK A01 T10251035  RH  094%=      5-min Rain = 0
KHES 071445Z 01017KT M03/M03 A3046 RMK A01 T10251034  RH  094%=      5-min Rain = 0
KHES 071450Z 01017G22KT M03/M03 A3046 RMK A01 T10251034  RH  094%=      5-min Rain = 0
KHES 071455Z 02019G26KT M03/M04 A3045 RMK A01 T10261035  RH  094%=      5-min Rain = 0
KHES 071500Z 02017G22KT M03/M04 A3045 RMK A01 T10261035  RH  094%=      5-min Rain = 0
KHES 071505Z 01017G25KT M03/M03 A3045 RMK A01 T10251034  RH  095%=      5-min Rain = 0
KHES 071510Z 01018G23KT M03/M03 A3045 RMK A01 T10261034  RH  095%=      5-min Rain = 0
KHES 071515Z 01019G25KT M03/M03 A3045 RMK A01 T10261034  RH  095%=      5-min Rain = 0
KHES 071520Z 02018G23KT M03/M03 A3045 RMK A01 T10261034  RH  095%=      5-min Rain = 0
KHES 071525Z 02018G23KT M03/M03 A3046 RMK A01 T10251034  RH  095%=      5-min Rain = 0
KHES 071530Z 02016G23KT M03/M03 A3046 RMK A01 T10251033  RH  095%=      5-min Rain = 0
KHES 071535Z 01015G20KT M03/M03 A3046 RMK A01 T10251033  RH  095%=      5-min Rain = 0
KHES 071540Z 01017KT M03/M03 A3047 RMK A01 T10261033  RH  095%=      5-min Rain = 0
KHES 071545Z 01019G24KT M03/M03 A3047 RMK A01 T10261034  RH  095%=      5-min Rain = 0
KHES 071550Z 02018G24KT M03/M03 A3046 RMK A01 T10261033  RH  095%=      5-min Rain = 0
KHES 071555Z 02017G22KT M03/M03 A3046 RMK A01 T10251033  RH  095%=      5-min Rain = 0
KHES 071600Z 01016G21KT M03/M03 A3047 RMK A01 T10251033  RH  094%=      5-min Rain = 0
KHES 071605Z 01016KT M03/M03 A3048 RMK A01 T10251034  RH  094%=      5-min Rain = 0
KHES 071610Z 01014G21KT M03/M03 A3048 RMK A01 T10251033  RH  095%=      5-min Rain = 0
KHES 071615Z 01016G21KT M03/M04 A3048 RMK A01 T10271036  RH  094%=      5-min Rain = 0
KHES 071620Z 01016G21KT M03/M04 A3048 RMK A01 T10271036  RH  094%=      5-min Rain = 0
KHES 071625Z 02016G21KT M03/M04 A3048 RMK A01 T10281038  RH  094%=      5-min Rain = 0
KHES 071630Z 02016KT M03/M04 A3048 RMK A01 T10281037  RH  094%=      5-min Rain = 0
KHES 071635Z 02017G22KT M03/M04 A3048 RMK A01 T10281037  RH  094%=      5-min Rain = 0
KHES 071640Z 02015G20KT M03/M04 A3048 RMK A01 T10281036  RH  094%=      5-min Rain = 0
KHES 071645Z 02016G21KT M03/M04 A3048 RMK A01 T10281036  RH  095%=      5-min Rain = 0
KHES 071650Z 02014KT M03/M04 A3049 RMK A01 T10271035  RH  095%=      5-min Rain = 0
KHES 071655Z 02014KT M03/M03 A3049 RMK A01 T10271034  RH  095%=      5-min Rain = 0
KHES 071700Z 01016KT M03/M03 A3049 RMK A01 T10271034  RH  095%=      5-min Rain = 0
KHES 071705Z 01016KT M03/M03 A3049 RMK A01 T10271034  RH  095%=      5-min Rain = 0
KHES 071710Z 01015KT M03/M03 A3049 RMK A01 T10261033  RH  096%=      5-min Rain = 0
KHES 071715Z 01016KT M03/M03 A3049 RMK A01 T10261033  RH  096%=      5-min Rain = 0
KHES 071720Z 01018KT M03/M03 A3048 RMK A01 T10271033  RH  096%=      5-min Rain = 0
KHES 071725Z 01017KT M03/M03 A3048 RMK A01 T10271034  RH  096%=      5-min Rain = 0
KHES 071730Z 02014KT M03/M03 A3048 RMK A01 T10261033  RH  096%=      5-min Rain = 0
KHES 071735Z 01015KT M03/M03 A3048 RMK A01 T10261033  RH  096%=      5-min Rain = 0
KHES 071740Z 02015KT M03/M03 A3048 RMK A01 T10261033  RH  096%=      5-min Rain = 0
KHES 071745Z 02014KT M03/M03 A3048 RMK A01 T10261033  RH  096%=      5-min Rain = 0
KHES 071750Z 02014KT M03/M03 A3048 RMK A01 T10261032  RH  096%=      5-min Rain = 0
KHES 071755Z 02013KT M03/M03 A3048 RMK A01 T10261033  RH  096%=      5-min Rain = 0
KHES 071800Z 02014KT M03/M03 A3048 RMK A01 T10261033  RH  095%=      5-min Rain = 0
KHES 071805Z 02015KT M03/M03 A3047 RMK A01 T10261034  RH  095%=      5-min Rain = 0
KHES 071810Z 02014G19KT M03/M03 A3047 RMK A01 T10251034  RH  094%=      5-min Rain = 0
KHES 071815Z 02013G18KT M03/M03 A3047 RMK A01 T10251033  RH  095%=      5-min Rain = 0
KHES 071820Z 02012KT M02/M03 A3048 RMK A01 T10241032  RH  095%=      5-min Rain = 0
KHES 071825Z 01013KT M02/M03 A3048 RMK A01 T10231031  RH  095%=      5-min Rain = 0
KHES 071830Z 02012G17KT M02/M03 A3048 RMK A01 T10231032  RH  095%=      5-min Rain = 0
KHES 071835Z 02012KT M02/M03 A3048 RMK A01 T10221031  RH  094%=      5-min Rain = 0
KHES 071840Z 02013KT M02/M03 A3048 RMK A01 T10221032  RH  094%=      5-min Rain = 0
KHES 071845Z 01012KT M02/M03 A3047 RMK A01 T10231033  RH  094%=      5-min Rain = 0
KHES 071850Z 00012KT M02/M03 A3048 RMK A01 T10231032  RH  094%=      5-min Rain = 0
KHES 071855Z 36011KT M02/M03 A3048 RMK A01 T10231032  RH  094%=      5-min Rain = 0
KHES 071900Z 36010KT M02/M03 A3047 RMK A01 T10231032  RH  094%=      5-min Rain = 0
KHES 071905Z 36011KT M02/M03 A3047 RMK A01 T10221031  RH  094%=      5-min Rain = 0
KHES 071910Z 36012KT M02/M03 A3046 RMK A01 T10221031  RH  094%=      5-min Rain = 0
KHES 071915Z 00012KT M02/M03 A3046 RMK A01 T10221031  RH  094%=      5-min Rain = 0
KHES 071920Z 00012KT M02/M03 A3046 RMK A01 T10221032  RH  094%=      5-min Rain = 0
KHES 071925Z 01012KT M02/M03 A3045 RMK A01 T10221031  RH  094%=      5-min Rain = 0
KHES 071930Z 01012KT M02/M03 A3045 RMK A01 T10211030  RH  094%=      5-min Rain = 0
KHES 071935Z 01012KT M02/M03 A3044 RMK A01 T10211029  RH  094%=      5-min Rain = 0
KHES 071940Z 02013KT M02/M03 A3044 RMK A01 T10201029  RH  094%=      5-min Rain = 0
KHES 071945Z 01013KT M02/M03 A3044 RMK A01 T10211029  RH  095%=      5-min Rain = 0
KHES 071950Z 01013KT M02/M03 A3043 RMK A01 T10201028  RH  095%=      5-min Rain = 0
KHES 071955Z 01014KT M02/M03 A3043 RMK A01 T10191028  RH  094%=      5-min Rain = 0
KHES 072000Z 01013KT M02/M03 A3043 RMK A01 T10191028  RH  094%=      5-min Rain = 0
KHES 072005Z 02014KT M02/M03 A3043 RMK A01 T10191029  RH  094%=      5-min Rain = 0
KHES 072010Z 02012KT M02/M03 A3043 RMK A01 T10181026  RH  095%=      5-min Rain = 0
KHES 072015Z 02013KT M02/M03 A3043 RMK A01 T10181026  RH  095%=      5-min Rain = 0
KHES 072020Z 02011KT M02/M03 A3043 RMK A01 T10181025  RH  096%=      5-min Rain = 0
KHES 072025Z 01012KT M02/M03 A3043 RMK A01 T10191025  RH  096%=      5-min Rain = 0
KHES 072030Z 02011KT M02/M03 A3044 RMK A01 T10191025  RH  096%=      5-min Rain = 0
KHES 072035Z 02011KT M02/M03 A3044 RMK A01 T10191025  RH  096%=      5-min Rain = 0
KHES 072040Z 02010KT M02/M03 A3044 RMK A01 T10191025  RH  096%=      5-min Rain = 0
KHES 072045Z 01010KT M02/M03 A3043 RMK A01 T10181025  RH  096%=      5-min Rain = 0
KHES 072050Z 02011KT M02/M02 A3043 RMK A01 T10171024  RH  096%=      5-min Rain = 0
KHES 072055Z 01010KT M02/M02 A3043 RMK A01 T10171024  RH  096%=      5-min Rain = 0
KHES 072100Z 01008KT M02/M02 A3043 RMK A01 T10161023  RH  096%=      5-min Rain = 0
KHES 072105Z 02008KT M02/M02 A3043 RMK A01 T10151022  RH  096%=      5-min Rain = 0
KHES 072110Z 02008KT M02/M02 A3043 RMK A01 T10151022  RH  096%=      5-min Rain = 0
KHES 072115Z 01009KT M01/M02 A3043 RMK A01 T10141021  RH  096%=      5-min Rain = 0
KHES 072120Z 02007KT M01/M02 A3043 RMK A01 T10131020  RH  096%=      5-min Rain = 0
KHES 072125Z 02007KT M01/M02 A3044 RMK A01 T10131020  RH  096%=      5-min Rain = 0
KHES 072130Z 01007KT M01/M02 A3044 RMK A01 T10131019  RH  096%=      5-min Rain = 0
KHES 072135Z 01006KT M01/M02 A3043 RMK A01 T10121018  RH  097%=      5-min Rain = 0
KHES 072140Z 01007KT M01/M02 A3043 RMK A01 T10121017  RH  097%=      5-min Rain = 0
KHES 072145Z 01006KT M01/M02 A3043 RMK A01 T10121017  RH  097%=      5-min Rain = 0
KHES 072150Z 02008KT M01/M02 A3043 RMK A01 T10111016  RH  097%=      5-min Rain = 0
KHES 072155Z 02007KT M01/M02 A3043 RMK A01 T10101015  RH  097%=      5-min Rain = 0
KHES 072200Z 01009KT M01/M02 A3043 RMK A01 T10111015  RH  097%=      5-min Rain = 0
KHES 072205Z 02008KT M01/M02 A3043 RMK A01 T10111015  RH  097%=      5-min Rain = 0
KHES 072210Z 01008KT M01/M02 A3043 RMK A01 T10101015  RH  097%=      5-min Rain = 0
KHES 072215Z 02008KT M01/M02 A3043 RMK A01 T10101015  RH  097%=      5-min Rain = 0
KHES 072220Z 01007KT M01/M02 A3043 RMK A01 T10101015  RH  097%=      5-min Rain = 0
KHES 072225Z 01007KT M01/M02 A3043 RMK A01 T10091015  RH  097%=      5-min Rain = 0
KHES 072230Z 01007KT M01/M02 A3043 RMK A01 T10091015  RH  097%=      5-min Rain = 0
KHES 072235Z 02007KT M01/M02 A3043 RMK A01 T10091016  RH  096%=      5-min Rain = 0
KHES 072240Z 01007KT M01/M02 A3043 RMK A01 T10091016  RH  096%=      5-min Rain = 0
KHES 072245Z 02006KT M01/M02 A3043 RMK A01 T10091015  RH  096%=      5-min Rain = 0
KHES 072250Z 02007KT M01/M02 A3043 RMK A01 T10081015  RH  096%=      5-min Rain = 0
KHES 072255Z 02007KT M01/M02 A3043 RMK A01 T10081015  RH  096%=      5-min Rain = 0
KHES 072300Z 02007KT M01/M01 A3043 RMK A01 T10081014  RH  096%=      5-min Rain = 0
KHES 072305Z 02006KT M01/M01 A3043 RMK A01 T10081014  RH  096%=      5-min Rain = 0
KHES 072310Z 03007KT M01/M02 A3043 RMK A01 T10081015  RH  096%=      5-min Rain = 0
KHES 072315Z 03006KT M01/M02 A3043 RMK A01 T10081015  RH  096%=      5-min Rain = 0
KHES 072320Z 03005KT M01/M02 A3043 RMK A01 T10081015  RH  096%=      5-min Rain = 0
KHES 072325Z 02004KT M01/M01 A3043 RMK A01 T10071014  RH  096%=      5-min Rain = 0
KHES 072330Z 02005KT M01/M01 A3043 RMK A01 T10071014  RH  096%=      5-min Rain = 0
KHES 072335Z 02006KT M01/M01 A3043 RMK A01 T10071014  RH  096%=      5-min Rain = 0
KHES 072340Z 03006KT M01/M01 A3043 RMK A01 T10071013  RH  097%=      5-min Rain = 0
KHES 072345Z 03006KT M01/M01 A3043 RMK A01 T10071013  RH  097%=      5-min Rain = 0
KHES 072350Z 02007KT M01/M01 A3043 RMK A01 T10071013  RH  097%=      5-min Rain = 0
KHES 072355Z 03007KT M01/M01 A3043 RMK A01 T10081014  RH  097%=      5-min Rain = 0
KHES 080000Z 03007KT M01/M01 A3043 RMK A01 T10081014  RH  097%=      5-min Rain = 0
KHES 080005Z 03007KT M01/M01 A3043 RMK A01 T10091014  RH  097%=      5-min Rain = 0
KHES 080010Z 03006KT M01/M01 A3043 RMK A01 T10081014  RH  097%=      5-min Rain = 0
KHES 080015Z 02005KT M01/M01 A3043 RMK A01 T10081013  RH  097%=      5-min Rain = 0
KHES 080020Z 03005KT M01/M01 A3043 RMK A01 T10081012  RH  098%=      5-min Rain = 0
KHES 080025Z 03005KT M01/M01 A3043 RMK A01 T10071012  RH  098%=      5-min Rain = 0
KHES 080030Z 02006KT M01/M01 A3043 RMK A01 T10081012  RH  098%=      5-min Rain = 0
KHES 080035Z 02005KT M01/M01 A3044 RMK A01 T10081012  RH  098%=      5-min Rain = 0
KHES 080040Z 02006KT M01/M01 A3044 RMK A01 T10081012  RH  098%=      5-min Rain = 0
KHES 080045Z 02006KT M01/M01 A3044 RMK A01 T10081012  RH  098%=      5-min Rain = 0
KHES 080050Z 02005KT M01/M01 A3044 RMK A01 T10081012  RH  098%=      5-min Rain = 0
KHES 080055Z 01006KT M01/M01 A3044 RMK A01 T10081012  RH  098%=      5-min Rain = 0
KHES 080100Z 01006KT M01/M01 A3045 RMK A01 T10091012  RH  098%=      5-min Rain = 0
KHES 080105Z 01005KT M01/M01 A3045 RMK A01 T10091013  RH  098%=      5-min Rain = 0
KHES 080110Z 02005KT M01/M01 A3045 RMK A01 T10091013  RH  098%=      5-min Rain = 0
KHES 080115Z 02004KT M01/M01 A3045 RMK A01 T10101013  RH  098%=      5-min Rain = 0
KHES 080120Z 03004KT M01/M01 A3045 RMK A01 T10091012  RH  098%=      5-min Rain = 0
KHES 080125Z 03004KT M01/M01 A3045 RMK A01 T10081011  RH  098%=      5-min Rain = 0
KHES 080130Z 03004KT M01/M01 A3044 RMK A01 T10081012  RH  098%=      5-min Rain = 0
KHES 080135Z 03006KT M01/M01 A3044 RMK A01 T10091013  RH  098%=      5-min Rain = 0
KHES 080140Z 03006KT M01/M01 A3044 RMK A01 T10091013  RH  098%=      5-min Rain = 0
KHES 080145Z 03004KT M01/M01 A3044 RMK A01 T10081012  RH  098%=      5-min Rain = 0
KHES 080150Z 02005KT M01/M01 A3044 RMK A01 T10081012  RH  098%=      5-min Rain = 0
KHES 080155Z 03004KT M01/M01 A3044 RMK A01 T10071011  RH  098%=      5-min Rain = 0
KHES 080200Z 03004KT M01/M01 A3044 RMK A01 T10071011  RH  098%=      5-min Rain = 0
KHES 080205Z 03003KT M01/M01 A3044 RMK A01 T10081012  RH  098%=      5-min Rain = 0
KHES 080210Z 01002KT M01/M01 A3044 RMK A01 T10071012  RH  098%=      5-min Rain = 0
KHES 080215Z 01003KT M01/M01 A3044 RMK A01 T10071011  RH  098%=      5-min Rain = 0
KHES 080220Z 00003KT M01/M01 A3044 RMK A01 T10071011  RH  098%=      5-min Rain = 0
KHES 080225Z 01003KT M01/M01 A3044 RMK A01 T10061011  RH  098%=      5-min Rain = 0
KHES 080230Z 01003KT M01/M01 A3045 RMK A01 T10051010  RH  098%=      5-min Rain = 0
KHES 080235Z 02003KT M01/M01 A3045 RMK A01 T10051010  RH  097%=      5-min Rain = 0
KHES 080240Z 02003KT M01/M01 A3045 RMK A01 T10051011  RH  097%=      5-min Rain = 0
KHES 080245Z 03002KT M01/M01 A3045 RMK A01 T10051010  RH  097%=      5-min Rain = 0
KHES 080250Z 04001KT M01/M01 A3045 RMK A01 T10051011  RH  097%=      5-min Rain = 0
KHES 080255Z 02000KT M00/M01 A3046 RMK A01 T10041011  RH  096%=      5-min Rain = 0
KHES 080300Z 00002KT M00/M01 A3046 RMK A01 T10041011  RH  096%=      5-min Rain = 0
KHES 080305Z 36004KT M01/M01 A3045 RMK A01 T10051012  RH  096%=      5-min Rain = 0
KHES 080310Z 36004KT M00/M01 A3045 RMK A01 T10041012  RH  095%=      5-min Rain = 0
KHES 080315Z 34003KT M00/M01 A3045 RMK A01 T10041013  RH  095%=      5-min Rain = 0
KHES 080320Z 33003KT M00/M01 A3045 RMK A01 T10031012  RH  095%=      5-min Rain = 0
KHES 080325Z 34003KT M00/M01 A3046 RMK A01 T10041014  RH  094%=      5-min Rain = 0
KHES 080330Z 33003KT M00/M01 A3046 RMK A01 T10031013  RH  094%=      5-min Rain = 0
KHES 080335Z 32003KT M00/M01 A3046 RMK A01 T10031013  RH  094%=      5-min Rain = 0
KHES 080340Z 32003KT M00/M01 A3046 RMK A01 T10031013  RH  094%=      5-min Rain = 0
KHES 080345Z 32002KT M00/M01 A3046 RMK A01 T10031012  RH  095%=      5-min Rain = 0
KHES 080350Z 33003KT M00/M01 A3046 RMK A01 T10031011  RH  095%=      5-min Rain = 0
KHES 080355Z 32002KT M00/M01 A3046 RMK A01 T10031011  RH  095%=      5-min Rain = 0
KHES 080400Z 33002KT M00/M01 A3046 RMK A01 T10031011  RH  096%=      5-min Rain = 0
KHES 080405Z 33002KT M00/M01 A3046 RMK A01 T10031010  RH  096%=      5-min Rain = 0
KHES 080410Z 33002KT M00/M01 A3046 RMK A01 T10031010  RH  096%=      5-min Rain = 0
KHES 080415Z 33001KT M00/M01 A3046 RMK A01 T10031010  RH  096%=      5-min Rain = 0
KHES 080420Z 31002KT M00/M01 A3046 RMK A01 T10031009  RH  097%=      5-min Rain = 0
KHES 080425Z 31002KT M00/M01 A3046 RMK A01 T10031009  RH  097%=      5-min Rain = 0
KHES 080430Z 30002KT M00/M01 A3046 RMK A01 T10031009  RH  097%=      5-min Rain = 0
KHES 080435Z 31002KT M00/M01 A3046 RMK A01 T10031010  RH  096%=      5-min Rain = 0
KHES 080440Z 30001KT M00/M01 A3046 RMK A01 T10031010  RH  096%=      5-min Rain = 0
KHES 080445Z 31001KT M00/M01 A3046 RMK A01 T10031010  RH  096%=      5-min Rain = 0
KHES 080450Z 30002KT M00/M01 A3046 RMK A01 T10031011  RH  095%=      5-min Rain = 0
KHES 080455Z 31001KT M00/M01 A3046 RMK A01 T10031011  RH  095%=      5-min Rain = 0
KHES 080500Z 32001KT M00/M01 A3045 RMK A01 T10031012  RH  095%=      5-min Rain = 0
KHES 080505Z 01001KT M00/M01 A3045 RMK A01 T10031012  RH  094%=      5-min Rain = 0
KHES 080510Z 08001KT M00/M01 A3045 RMK A01 T10031012  RH  094%=      5-min Rain = 0
KHES 080515Z 00000KT M00/M01 A3045 RMK A01 T10031013  RH  094%=      5-min Rain = 0
KHES 080520Z 35000KT M00/M01 A3045 RMK A01 T10031013  RH  094%=      5-min Rain = 0
KHES 080525Z 02000KT M00/M01 A3045 RMK A01 T10031013  RH  094%=      5-min Rain = 0
KHES 080530Z 24000KT M00/M01 A3045 RMK A01 T10031013  RH  094%=      5-min Rain = 0
KHES 080535Z 25000KT M00/M01 A3045 RMK A01 T10031013  RH  094%=      5-min Rain = 0
KHES 080540Z 24001KT M00/M01 A3045 RMK A01 T10031013  RH  094%=      5-min Rain = 0
KHES 080545Z 26002KT M00/M01 A3045 RMK A01 T10021012  RH  094%=      5-min Rain = 0
KHES 080550Z 26002KT M00/M01 A3045 RMK A01 T10031012  RH  094%=      5-min Rain = 0
KHES 080555Z 26002KT M00/M01 A3045 RMK A01 T10031012  RH  095%=      5-min Rain = 0

Page generated in 0.0167 seconds.